createdAt,value
2023-03-30T13:59:36.656Z,95723.00
2023-03-30T14:00:36.617Z,95719.00
2023-03-30T14:01:39.355Z,95712.00
2023-03-30T14:02:38.362Z,95700.00
2023-03-30T14:03:37.677Z,95700.00
2023-03-30T14:04:37.581Z,95704.00
2023-03-30T14:05:36.565Z,95700.00
2023-03-30T14:06:37.585Z,95702.00
2023-03-30T14:07:36.571Z,95704.00
2023-03-30T14:08:37.573Z,95706.00
2023-03-30T14:09:37.545Z,95715.00
2023-03-30T14:10:37.547Z,95715.00
2023-03-30T14:11:37.544Z,95714.00
2023-03-30T14:12:38.900Z,95714.00
2023-03-30T14:13:37.525Z,95712.00
2023-03-30T14:14:37.551Z,95706.00
2023-03-30T14:15:37.684Z,95706.00
2023-03-30T14:16:36.538Z,95706.00
2023-03-30T14:17:37.524Z,95704.00
2023-03-30T14:18:37.487Z,95706.00
2023-03-30T14:19:36.492Z,95708.00
2023-03-30T14:20:37.508Z,95708.00
2023-03-30T14:21:37.470Z,95706.00
2023-03-30T14:22:37.469Z,95702.00
2023-03-30T14:23:37.456Z,95696.00
2023-03-30T14:24:37.433Z,95696.00
2023-03-30T14:25:37.431Z,95694.00
2023-03-30T14:26:36.435Z,95696.00
2023-03-30T14:27:37.423Z,95698.00
2023-03-30T14:28:37.410Z,95698.00
2023-03-30T14:29:37.434Z,95700.00
2023-03-30T14:30:37.412Z,95704.00
2023-03-30T14:31:37.424Z,95702.00
2023-03-30T14:32:37.515Z,95704.00
2023-03-30T14:33:37.365Z,95706.00
2023-03-30T14:34:36.360Z,95704.00
2023-03-30T14:35:36.393Z,95702.00
2023-03-30T14:36:37.359Z,95704.00
2023-03-30T14:37:36.336Z,95702.00
2023-03-30T14:38:36.349Z,95710.00
2023-03-30T14:39:37.379Z,95706.00
2023-03-30T14:40:37.441Z,95712.00
2023-03-30T14:41:37.491Z,95714.00
2023-03-30T14:42:37.533Z,95712.00
2023-03-30T14:43:39.404Z,95715.00
2023-03-30T14:44:36.587Z,95715.00
2023-03-30T14:45:37.626Z,95715.00
2023-03-30T14:46:37.581Z,95715.00
2023-03-30T14:47:37.701Z,95714.00
2023-03-30T14:48:37.572Z,95710.00
2023-03-30T14:49:37.553Z,95714.00
2023-03-30T14:50:37.551Z,95714.00
2023-03-30T14:51:37.565Z,95714.00
2023-03-30T14:52:37.539Z,95706.00
2023-03-30T14:53:37.520Z,95704.00
2023-03-30T14:54:37.505Z,95696.00
2023-03-30T14:55:37.526Z,95688.00
2023-03-30T14:56:37.493Z,95686.00
2023-03-30T14:57:37.485Z,95686.00
2023-03-30T14:58:37.491Z,95690.00
2023-03-30T14:59:39.677Z,95688.00
2023-03-30T15:00:37.485Z,95690.00
2023-03-30T15:01:37.551Z,95688.00
2023-03-30T15:02:37.490Z,95686.00
2023-03-30T15:03:37.615Z,95686.00
2023-03-30T15:04:36.506Z,95684.00
2023-03-30T15:05:37.460Z,95686.00
2023-03-30T15:06:37.433Z,95686.00
2023-03-30T15:07:08.118Z,95652.00
2023-03-30T15:07:37.418Z,95686.00
2023-03-30T15:08:37.414Z,95688.00
2023-03-30T15:09:37.399Z,95690.00
2023-03-30T15:10:37.402Z,95694.00
2023-03-30T15:11:37.388Z,95696.00
2023-03-30T15:12:09.968Z,95660.00
2023-03-30T15:12:37.395Z,95698.00
2023-03-30T15:13:11.001Z,95660.00
2023-03-30T15:13:37.379Z,95696.00
2023-03-30T15:14:11.027Z,95658.00
2023-03-30T15:14:37.379Z,95702.00
2023-03-30T15:15:11.073Z,95662.00
2023-03-30T15:15:37.375Z,95700.00
2023-03-30T15:16:11.118Z,95662.00
2023-03-30T15:16:36.364Z,95698.00
2023-03-30T15:17:11.220Z,95660.00
2023-03-30T15:17:37.368Z,95698.00
2023-03-30T15:18:11.189Z,95660.00
2023-03-30T15:18:37.337Z,95700.00
2023-03-30T15:19:11.235Z,95658.00
2023-03-30T15:19:37.323Z,95696.00
2023-03-30T15:20:11.210Z,95660.00
2023-03-30T15:20:37.340Z,95696.00
2023-03-30T15:21:11.278Z,95656.00
2023-03-30T15:21:37.315Z,95692.00
2023-03-30T15:22:11.304Z,95654.00
2023-03-30T15:22:37.316Z,95694.00
2023-03-30T15:23:10.363Z,95656.00
2023-03-30T15:23:36.301Z,95698.00
2023-03-30T15:24:11.406Z,95658.00
2023-03-30T15:24:36.295Z,95698.00
2023-03-30T15:25:11.440Z,95654.00
2023-03-30T15:25:37.316Z,95692.00
2023-03-30T15:26:11.481Z,95652.00
2023-03-30T15:26:37.354Z,95688.00
2023-03-30T15:27:11.523Z,95648.00
2023-03-30T15:27:37.416Z,95684.00
2023-03-30T15:28:11.554Z,95646.00
2023-03-30T15:28:37.467Z,95688.00
2023-03-30T15:29:11.614Z,95646.00
2023-03-30T15:29:37.527Z,95684.00
2023-03-30T15:30:10.638Z,95646.00
2023-03-30T15:30:45.869Z,95686.00
2023-03-30T15:31:37.744Z,95686.00
2023-03-30T15:32:37.585Z,95694.00
2023-03-30T15:33:37.550Z,95694.00
2023-03-30T15:34:37.573Z,95690.00
2023-03-30T15:35:37.625Z,95690.00
2023-03-30T15:36:37.552Z,95694.00
2023-03-30T15:37:37.530Z,95692.00
2023-03-30T15:38:37.500Z,95696.00
2023-03-30T15:39:37.495Z,95696.00
2023-03-30T15:40:36.499Z,95702.00
2023-03-30T15:41:37.487Z,95706.00
2023-03-30T15:42:37.478Z,95704.00
2023-03-30T15:43:37.500Z,95706.00
2023-03-30T15:44:37.468Z,95710.00
2023-03-30T15:45:36.466Z,95715.00
2023-03-30T15:46:36.477Z,95725.00
2023-03-30T15:47:36.484Z,95731.00
2023-03-30T15:48:37.435Z,95729.00
2023-03-30T15:49:37.434Z,95737.00
2023-03-30T15:50:36.444Z,95735.00
2023-03-30T15:51:37.419Z,95735.00
2023-03-30T15:52:37.437Z,95737.00
2023-03-30T15:53:37.405Z,95745.00
2023-03-30T15:54:36.403Z,95749.00
2023-03-30T15:55:37.385Z,95753.00
2023-03-30T15:56:36.390Z,95755.00
2023-03-30T15:57:36.384Z,95762.00
2023-03-30T15:58:37.375Z,95749.00
2023-03-30T15:59:36.373Z,95749.00
2023-03-30T16:00:37.354Z,95743.00
2023-03-30T16:01:37.374Z,95733.00
2023-03-30T16:02:36.515Z,95729.00
2023-03-30T16:03:36.461Z,95723.00
2023-03-30T16:04:37.553Z,95725.00
2023-03-30T16:05:37.599Z,95725.00
2023-03-30T16:06:36.646Z,95717.00
2023-03-30T16:07:36.672Z,95719.00
2023-03-30T16:08:37.716Z,95719.00
2023-03-30T16:09:37.766Z,95721.00
2023-03-30T16:10:36.821Z,95727.00
2023-03-30T16:11:37.892Z,95729.00
2023-03-30T16:12:38.553Z,95731.00
2023-03-30T16:13:38.001Z,95729.00
2023-03-30T16:14:38.059Z,95725.00
2023-03-30T16:15:38.122Z,95712.00
2023-03-30T16:16:37.270Z,95708.00
2023-03-30T16:17:38.258Z,95698.00
2023-03-30T16:18:37.327Z,95690.00
2023-03-30T16:19:38.351Z,95684.00
2023-03-30T16:20:38.414Z,95684.00
2023-03-30T16:21:38.517Z,95684.00
2023-03-30T16:22:38.564Z,95682.00
2023-03-30T16:23:38.595Z,95676.00
2023-03-30T16:24:38.650Z,95670.00
2023-03-30T16:25:45.382Z,95672.00
2023-03-30T16:26:38.707Z,95670.00
2023-03-30T16:27:38.713Z,95674.00
2023-03-30T16:28:40.046Z,95680.00
2023-03-30T16:29:37.699Z,95674.00
2023-03-30T16:30:38.674Z,95674.00
2023-03-30T16:31:38.787Z,95674.00
2023-03-30T16:32:38.720Z,95672.00
2023-03-30T16:33:38.674Z,95674.00
2023-03-30T16:34:39.774Z,95676.00
2023-03-30T16:35:38.648Z,95678.00
2023-03-30T16:36:37.841Z,95678.00
2023-03-30T16:37:38.692Z,95678.00
2023-03-30T16:38:38.645Z,95676.00
2023-03-30T16:39:38.630Z,95678.00
2023-03-30T16:40:39.787Z,95680.00
2023-03-30T16:41:38.641Z,95680.00
2023-03-30T16:42:37.600Z,95674.00
2023-03-30T16:43:38.622Z,95676.00
2023-03-30T16:44:37.581Z,95678.00
2023-03-30T16:45:38.618Z,95680.00
2023-03-30T16:46:40.156Z,95680.00
2023-03-30T16:47:37.675Z,95680.00
2023-03-30T16:48:38.575Z,95684.00
2023-03-30T16:49:37.558Z,95684.00
2023-03-30T16:50:38.558Z,95688.00
2023-03-30T16:51:37.537Z,95690.00
2023-03-30T16:52:38.524Z,95694.00
2023-03-30T16:53:38.536Z,95698.00
2023-03-30T16:54:38.492Z,95696.00
2023-03-30T16:55:37.587Z,95694.00
2023-03-30T16:56:37.479Z,95692.00
2023-03-30T16:57:37.487Z,95692.00
2023-03-30T16:58:37.487Z,95690.00
2023-03-30T16:59:38.454Z,95694.00
2023-03-30T17:00:38.455Z,95696.00
2023-03-30T17:01:38.473Z,95688.00
2023-03-30T17:02:38.503Z,95672.00
2023-03-30T17:03:38.558Z,95655.00
2023-03-30T17:04:37.605Z,95645.00
2023-03-30T17:05:38.831Z,95641.00
2023-03-30T17:06:38.727Z,95639.00
2023-03-30T17:07:38.797Z,95639.00
2023-03-30T17:08:40.512Z,95635.00
2023-03-30T17:09:37.881Z,95633.00
2023-03-30T17:10:38.840Z,95633.00
2023-03-30T17:11:38.832Z,95627.00
2023-03-30T17:12:38.818Z,95625.00
2023-03-30T17:13:38.815Z,95623.00
2023-03-30T17:14:39.745Z,95625.00
2023-03-30T17:15:38.816Z,95625.00
2023-03-30T17:16:38.846Z,95633.00
2023-03-30T17:17:38.828Z,95635.00
2023-03-30T17:18:38.781Z,95635.00
2023-03-30T17:19:38.782Z,95643.00
2023-03-30T17:20:37.779Z,95645.00
2023-03-30T17:21:38.762Z,95649.00
2023-03-30T17:22:38.777Z,95651.00
2023-03-30T17:23:37.758Z,95659.00
2023-03-30T17:24:38.740Z,95668.00
2023-03-30T17:25:38.766Z,95674.00
2023-03-30T17:26:38.740Z,95676.00
2023-03-30T17:27:38.725Z,95674.00
2023-03-30T17:28:37.745Z,95676.00
2023-03-30T17:29:38.768Z,95684.00
2023-03-30T17:30:37.740Z,95688.00
2023-03-30T17:31:39.032Z,95690.00
2023-03-30T17:32:38.750Z,95694.00
2023-03-30T17:33:38.707Z,95690.00
2023-03-30T17:34:39.389Z,95688.00
2023-03-30T17:35:38.782Z,95696.00
2023-03-30T17:36:38.690Z,95710.00
2023-03-30T17:37:38.636Z,95708.00
2023-03-30T17:38:37.639Z,95710.00
2023-03-30T17:39:37.626Z,95706.00
2023-03-30T17:40:37.680Z,95712.00
2023-03-30T17:41:38.753Z,95708.00
2023-03-30T17:42:38.828Z,95704.00
2023-03-30T17:43:38.837Z,95702.00
2023-03-30T17:44:37.892Z,95708.00
2023-03-30T17:45:38.967Z,95710.00
2023-03-30T17:46:39.226Z,95710.00
2023-03-30T17:47:39.169Z,95712.00
2023-03-30T17:48:39.135Z,95710.00
2023-03-30T17:49:39.190Z,95712.00
2023-03-30T17:50:39.327Z,95704.00
2023-03-30T17:51:39.311Z,95702.00
2023-03-30T17:52:38.386Z,95696.00
2023-03-30T17:53:38.450Z,95696.00
2023-03-30T17:54:42.502Z,95696.00
2023-03-30T17:55:38.506Z,95694.00
2023-03-30T17:56:39.512Z,95696.00
2023-03-30T17:57:38.530Z,95706.00
2023-03-30T17:58:39.511Z,95714.00
2023-03-30T17:59:39.506Z,95719.00
2023-03-30T18:00:39.467Z,95719.00
2023-03-30T18:01:39.527Z,95712.00
2023-03-30T18:02:39.499Z,95712.00
2023-03-30T18:03:39.633Z,95723.00
2023-03-30T18:04:39.438Z,95733.00
2023-03-30T18:05:38.442Z,95737.00
2023-03-30T18:06:39.432Z,95737.00
2023-03-30T18:07:39.420Z,95733.00
2023-03-30T18:08:39.431Z,95731.00
2023-03-30T18:09:39.411Z,95733.00
2023-03-30T18:10:39.428Z,95735.00
2023-03-30T18:11:38.489Z,95733.00
2023-03-30T18:12:38.543Z,95729.00
2023-03-30T18:13:39.635Z,95727.00
2023-03-30T18:14:38.700Z,95731.00
2023-03-30T18:15:38.782Z,95735.00
2023-03-30T18:16:39.902Z,95731.00
2023-03-30T18:17:39.908Z,95725.00
2023-03-30T18:18:39.909Z,95723.00
2023-03-30T18:19:40.895Z,95721.00
2023-03-30T18:20:40.073Z,95721.00
2023-03-30T18:21:39.120Z,95733.00
2023-03-30T18:22:39.202Z,95743.00
2023-03-30T18:23:40.236Z,95751.00
2023-03-30T18:24:40.286Z,95749.00
2023-03-30T18:25:40.356Z,95745.00
2023-03-30T18:26:40.439Z,95735.00
2023-03-30T18:27:40.488Z,95735.00
2023-03-30T18:28:40.707Z,95737.00
2023-03-30T18:29:39.655Z,95741.00
2023-03-30T18:30:39.676Z,95737.00
2023-03-30T18:31:40.753Z,95731.00
2023-03-30T18:32:47.144Z,95723.00
2023-03-30T18:33:40.782Z,95721.00
2023-03-30T18:34:40.752Z,95731.00
2023-03-30T18:35:40.764Z,95731.00
2023-03-30T18:36:39.750Z,95731.00
2023-03-30T18:37:39.744Z,95731.00
2023-03-30T18:38:40.727Z,95731.00
2023-03-30T18:39:39.733Z,95737.00
2023-03-30T18:40:39.710Z,95739.00
2023-03-30T18:41:40.714Z,95737.00
2023-03-30T18:42:40.707Z,95733.00
2023-03-30T18:43:40.693Z,95727.00
2023-03-30T18:44:39.746Z,95727.00
2023-03-30T18:45:40.743Z,95727.00
2023-03-30T18:46:40.677Z,95725.00
2023-03-30T18:47:40.685Z,95721.00
2023-03-30T18:48:40.663Z,95714.00
2023-03-30T18:49:39.661Z,95715.00
2023-03-30T18:50:40.633Z,95715.00
2023-03-30T18:51:39.637Z,95721.00
2023-03-30T18:52:40.628Z,95721.00
2023-03-30T18:53:39.617Z,95723.00
2023-03-30T18:54:39.617Z,95729.00
2023-03-30T18:55:39.608Z,95731.00
2023-03-30T18:56:40.612Z,95733.00
2023-03-30T18:57:39.590Z,95735.00
2023-03-30T18:58:40.587Z,95735.00
2023-03-30T18:59:41.205Z,95733.00
2023-03-30T19:00:40.659Z,95735.00
2023-03-30T19:01:40.793Z,95733.00
2023-03-30T19:02:40.860Z,95733.00
2023-03-30T19:03:40.886Z,95733.00
2023-03-30T19:04:40.804Z,95739.00
2023-03-30T19:05:40.893Z,95741.00
2023-03-30T19:06:40.886Z,95747.00
2023-03-30T19:07:40.916Z,95751.00
2023-03-30T19:08:39.957Z,95751.00
2023-03-30T19:09:43.463Z,95747.00
2023-03-30T19:10:40.983Z,95743.00
2023-03-30T19:11:40.981Z,95743.00
2023-03-30T19:12:39.954Z,95745.00
2023-03-30T19:13:40.961Z,95745.00
2023-03-30T19:14:40.943Z,95743.00
2023-03-30T19:15:40.922Z,95749.00
2023-03-30T19:16:39.986Z,95747.00
2023-03-30T19:17:40.946Z,95745.00
2023-03-30T19:18:39.961Z,95749.00
2023-03-30T19:19:40.906Z,95751.00
2023-03-30T19:20:40.905Z,95749.00
2023-03-30T19:21:40.926Z,95753.00
2023-03-30T19:22:40.872Z,95757.00
2023-03-30T19:23:39.874Z,95761.00
2023-03-30T19:24:40.862Z,95766.00
2023-03-30T19:25:40.861Z,95764.00
2023-03-30T19:26:40.859Z,95753.00
2023-03-30T19:27:46.501Z,95749.00
2023-03-30T19:28:40.850Z,95753.00
2023-03-30T19:29:40.828Z,95764.00
2023-03-30T19:30:40.514Z,95761.00
2023-03-30T19:31:39.949Z,95762.00
2023-03-30T19:32:40.833Z,95762.00
2023-03-30T19:33:39.833Z,95759.00
2023-03-30T19:34:40.800Z,95757.00
2023-03-30T19:35:40.843Z,95762.00
2023-03-30T19:36:39.790Z,95768.00
2023-03-30T19:37:40.798Z,95772.00
2023-03-30T19:38:39.788Z,95776.00
2023-03-30T19:39:40.818Z,95770.00
2023-03-30T19:40:40.876Z,95768.00
2023-03-30T19:41:40.862Z,95768.00
2023-03-30T19:42:40.884Z,95766.00
2023-03-30T19:43:40.940Z,95766.00
2023-03-30T19:44:40.954Z,95770.00
2023-03-30T19:45:40.982Z,95772.00
2023-03-30T19:46:41.066Z,95776.00
2023-03-30T19:47:40.094Z,95776.00
2023-03-30T19:48:41.077Z,95776.00
2023-03-30T19:49:41.136Z,95770.00
2023-03-30T19:50:41.134Z,95776.00
2023-03-30T19:51:40.170Z,95778.00
2023-03-30T19:52:41.215Z,95782.00
2023-03-30T19:53:41.229Z,95786.00
2023-03-30T19:54:40.234Z,95786.00
2023-03-30T19:55:40.283Z,95784.00
2023-03-30T19:56:41.319Z,95786.00
2023-03-30T19:57:41.310Z,95782.00
2023-03-30T19:58:40.316Z,95782.00
2023-03-30T19:59:41.338Z,95776.00
2023-03-30T20:00:41.353Z,95780.00
2023-03-30T20:01:41.412Z,95780.00
2023-03-30T20:02:41.545Z,95782.00
2023-03-30T20:03:41.487Z,95784.00
2023-03-30T20:04:40.354Z,95780.00
2023-03-30T20:05:41.372Z,95784.00
2023-03-30T20:06:40.339Z,95788.00
2023-03-30T20:07:40.429Z,95784.00
2023-03-30T20:08:40.413Z,95788.00
2023-03-30T20:09:41.440Z,95788.00
2023-03-30T20:10:41.477Z,95788.00
2023-03-30T20:11:41.503Z,95790.00
2023-03-30T20:12:41.552Z,95794.00
2023-03-30T20:13:40.554Z,95796.00
2023-03-30T20:14:41.576Z,95796.00
2023-03-30T20:15:41.585Z,95798.00
2023-03-30T20:16:40.689Z,95796.00
2023-03-30T20:17:41.725Z,95798.00
2023-03-30T20:18:41.653Z,95796.00
2023-03-30T20:19:41.648Z,95794.00
2023-03-30T20:20:41.706Z,95796.00
2023-03-30T20:21:41.758Z,95796.00
2023-03-30T20:22:41.757Z,95796.00
2023-03-30T20:23:41.769Z,95794.00
2023-03-30T20:24:42.980Z,95790.00
2023-03-30T20:25:41.777Z,95792.00
2023-03-30T20:26:41.762Z,95792.00
2023-03-30T20:27:41.796Z,95790.00
2023-03-30T20:28:41.758Z,95790.00
2023-03-30T20:29:41.739Z,95790.00
2023-03-30T20:30:40.761Z,95794.00
2023-03-30T20:31:41.741Z,95794.00
2023-03-30T20:32:41.745Z,95796.00
2023-03-30T20:33:41.743Z,95790.00
2023-03-30T20:34:41.748Z,95788.00
2023-03-30T20:35:40.759Z,95784.00
2023-03-30T20:36:41.701Z,95780.00
2023-03-30T20:37:41.725Z,95778.00
2023-03-30T20:38:41.696Z,95780.00
2023-03-30T20:39:41.678Z,95782.00
2023-03-30T20:40:41.736Z,95782.00
2023-03-30T20:41:41.649Z,95784.00
2023-03-30T20:42:41.662Z,95784.00
2023-03-30T20:43:53.262Z,95786.00
2023-03-30T20:44:41.643Z,95786.00
2023-03-30T20:45:41.649Z,95782.00
2023-03-30T20:46:40.617Z,95778.00
2023-03-30T20:47:40.663Z,95776.00
2023-03-30T20:48:40.597Z,95774.00
2023-03-30T20:49:42.025Z,95772.00
2023-03-30T20:50:40.589Z,95772.00
2023-03-30T20:51:41.567Z,95772.00
2023-03-30T20:52:41.576Z,95770.00
2023-03-30T20:53:41.594Z,95770.00
2023-03-30T20:54:40.558Z,95768.00
2023-03-30T20:55:41.541Z,95770.00
2023-03-30T20:56:41.574Z,95774.00
2023-03-30T20:57:41.551Z,95772.00
2023-03-30T20:58:41.554Z,95770.00
2023-03-30T20:59:41.537Z,95770.00
2023-03-30T21:00:41.516Z,95768.00
2023-03-30T21:01:41.567Z,95766.00
2023-03-30T21:02:41.519Z,95768.00
2023-03-30T21:03:40.496Z,95768.00
2023-03-30T21:04:41.617Z,95770.00
2023-03-30T21:05:40.738Z,95770.00
2023-03-30T21:06:41.480Z,95768.00
2023-03-30T21:07:41.473Z,95770.00
2023-03-30T21:08:41.458Z,95768.00
2023-03-30T21:09:41.482Z,95770.00
2023-03-30T21:10:41.436Z,95768.00
2023-03-30T21:11:40.446Z,95768.00
2023-03-30T21:12:41.439Z,95770.00
2023-03-30T21:13:41.428Z,95770.00
2023-03-30T21:14:41.414Z,95774.00
2023-03-30T21:15:41.408Z,95774.00
2023-03-30T21:16:41.461Z,95778.00
2023-03-30T21:17:41.439Z,95778.00
2023-03-30T21:18:41.403Z,95778.00
2023-03-30T21:19:41.382Z,95780.00
2023-03-30T21:20:41.368Z,95778.00
2023-03-30T21:21:41.385Z,95772.00
2023-03-30T21:22:41.362Z,95772.00
2023-03-30T21:23:41.347Z,95772.00
2023-03-30T21:24:41.354Z,95772.00
2023-03-30T21:25:41.368Z,95774.00
2023-03-30T21:26:41.331Z,95770.00
2023-03-30T21:27:41.336Z,95768.00
2023-03-30T21:28:41.322Z,95762.00
2023-03-30T21:29:41.313Z,95761.00
2023-03-30T21:30:41.374Z,95762.00
2023-03-30T21:31:41.302Z,95762.00
2023-03-30T21:32:41.339Z,95762.00
2023-03-30T21:33:41.289Z,95762.00
2023-03-30T21:34:41.280Z,95757.00
2023-03-30T21:35:41.374Z,95755.00
2023-03-30T21:36:41.399Z,95753.00
2023-03-30T21:37:41.276Z,95753.00
2023-03-30T21:38:41.240Z,95749.00
2023-03-30T21:39:41.230Z,95749.00
2023-03-30T21:40:41.225Z,95745.00
2023-03-30T21:41:41.261Z,95745.00
2023-03-30T21:42:41.245Z,95745.00
2023-03-30T21:43:41.212Z,95745.00
2023-03-30T21:44:41.270Z,95743.00
2023-03-30T21:45:40.202Z,95741.00
2023-03-30T21:46:41.212Z,95739.00
2023-03-30T21:47:41.202Z,95737.00
2023-03-30T21:48:40.221Z,95735.00
2023-03-30T21:49:41.190Z,95733.00
2023-03-30T21:50:41.165Z,95731.00
2023-03-30T21:51:41.156Z,95731.00
2023-03-30T21:52:40.152Z,95733.00
2023-03-30T21:53:41.194Z,95733.00
2023-03-30T21:54:41.131Z,95733.00
2023-03-30T21:55:40.128Z,95731.00
2023-03-30T21:56:40.119Z,95729.00
2023-03-30T21:57:40.134Z,95727.00
2023-03-30T21:58:40.125Z,95725.00
2023-03-30T21:59:41.089Z,95725.00
2023-03-30T22:00:41.097Z,95723.00
2023-03-30T22:01:40.101Z,95725.00
2023-03-30T22:02:41.228Z,95721.00
2023-03-30T22:03:41.317Z,95723.00
2023-03-30T22:04:41.087Z,95723.00
2023-03-30T22:05:41.077Z,95723.00
2023-03-30T22:06:41.100Z,95723.00
2023-03-30T22:07:41.065Z,95721.00
2023-03-30T22:08:41.097Z,95721.00
2023-03-30T22:09:41.049Z,95719.00
2023-03-30T22:10:41.066Z,95721.00
2023-03-30T22:11:41.090Z,95717.00
2023-03-30T22:12:41.074Z,95717.00
2023-03-30T22:13:41.168Z,95717.00
2023-03-30T22:14:41.069Z,95719.00
2023-03-30T22:15:41.050Z,95721.00
2023-03-30T22:16:41.093Z,95719.00
2023-03-30T22:17:40.064Z,95719.00
2023-03-30T22:18:40.052Z,95719.00
2023-03-30T22:19:41.054Z,95715.00
2023-03-30T22:20:41.035Z,95719.00
2023-03-30T22:21:40.066Z,95714.00
2023-03-30T22:22:40.040Z,95714.00
2023-03-30T22:23:41.036Z,95715.00
2023-03-30T22:24:41.030Z,95715.00
2023-03-30T22:25:41.042Z,95717.00
2023-03-30T22:26:41.032Z,95719.00
2023-03-30T22:27:41.039Z,95719.00
2023-03-30T22:28:41.046Z,95719.00
2023-03-30T22:29:41.061Z,95717.00
2023-03-30T22:30:40.026Z,95714.00
2023-03-30T22:31:41.125Z,95714.00
2023-03-30T22:32:40.067Z,95714.00
2023-03-30T22:33:41.078Z,95717.00
2023-03-30T22:34:41.028Z,95719.00
2023-03-30T22:35:40.059Z,95717.00
2023-03-30T22:36:41.035Z,95715.00
2023-03-30T22:37:41.027Z,95712.00
2023-03-30T22:38:41.049Z,95704.00
2023-03-30T22:39:41.062Z,95700.00
2023-03-30T22:40:41.070Z,95696.00
2023-03-30T22:41:41.087Z,95696.00
2023-03-30T22:42:40.044Z,95700.00
2023-03-30T22:43:41.068Z,95704.00
2023-03-30T22:44:40.062Z,95706.00
2023-03-30T22:45:40.084Z,95706.00
2023-03-30T22:46:41.052Z,95702.00
2023-03-30T22:47:41.054Z,95702.00
2023-03-30T22:48:41.029Z,95700.00
2023-03-30T22:49:41.031Z,95696.00
2023-03-30T22:50:41.030Z,95692.00
2023-03-30T22:51:41.006Z,95692.00
2023-03-30T22:52:41.005Z,95698.00
2023-03-30T22:53:41.031Z,95700.00
2023-03-30T22:54:41.023Z,95696.00
2023-03-30T22:55:41.029Z,95700.00
2023-03-30T22:56:41.525Z,95698.00
2023-03-30T22:57:41.102Z,95700.00
2023-03-30T22:58:40.097Z,95698.00
2023-03-30T22:59:41.041Z,95696.00
2023-03-30T23:00:41.047Z,95696.00
2023-03-30T23:01:40.105Z,95696.00
2023-03-30T23:02:40.159Z,95692.00
2023-03-30T23:03:40.083Z,95694.00
2023-03-30T23:04:41.021Z,95696.00
2023-03-30T23:05:40.025Z,95700.00
2023-03-30T23:06:41.006Z,95702.00
2023-03-30T23:07:39.990Z,95702.00
2023-03-30T23:08:40.993Z,95700.00
2023-03-30T23:09:41.005Z,95698.00
2023-03-30T23:10:41.000Z,95694.00
2023-03-30T23:11:42.560Z,95692.00
2023-03-30T23:12:41.120Z,95692.00
2023-03-30T23:13:41.024Z,95692.00
2023-03-30T23:14:40.107Z,95692.00
2023-03-30T23:15:41.128Z,95692.00
2023-03-30T23:16:41.130Z,95688.00
2023-03-30T23:17:40.195Z,95688.00
2023-03-30T23:18:41.095Z,95688.00
2023-03-30T23:19:41.099Z,95688.00
2023-03-30T23:20:41.105Z,95690.00
2023-03-30T23:21:41.111Z,95690.00
2023-03-30T23:22:40.095Z,95690.00
2023-03-30T23:23:41.091Z,95692.00
2023-03-30T23:24:41.103Z,95686.00
2023-03-30T23:25:41.093Z,95682.00
2023-03-30T23:26:40.087Z,95678.00
2023-03-30T23:27:40.127Z,95670.00
2023-03-30T23:28:41.109Z,95670.00
2023-03-30T23:29:40.107Z,95659.00
2023-03-30T23:30:41.142Z,95655.00
2023-03-30T23:31:41.095Z,95651.00
2023-03-30T23:32:40.119Z,95645.00
2023-03-30T23:33:41.143Z,95645.00
2023-03-30T23:34:41.100Z,95651.00
2023-03-30T23:35:41.105Z,95655.00
2023-03-30T23:36:40.087Z,95657.00
2023-03-30T23:37:41.075Z,95661.00
2023-03-30T23:38:41.080Z,95670.00
2023-03-30T23:39:41.094Z,95672.00
2023-03-30T23:40:41.108Z,95674.00
2023-03-30T23:41:41.082Z,95672.00
2023-03-30T23:42:40.074Z,95668.00
2023-03-30T23:43:41.089Z,95659.00
2023-03-30T23:44:41.072Z,95661.00
2023-03-30T23:45:41.059Z,95659.00
2023-03-30T23:46:41.085Z,95659.00
2023-03-30T23:47:40.158Z,95659.00
2023-03-30T23:48:40.073Z,95661.00
2023-03-30T23:49:41.111Z,95661.00
2023-03-30T23:50:40.061Z,95659.00
2023-03-30T23:51:40.062Z,95655.00
2023-03-30T23:52:41.086Z,95653.00
2023-03-30T23:53:41.054Z,95651.00
2023-03-30T23:54:41.069Z,95647.00
2023-03-30T23:55:41.062Z,95647.00
2023-03-30T23:56:41.064Z,95645.00
2023-03-30T23:57:41.074Z,95643.00
2023-03-30T23:58:41.067Z,95645.00
2023-03-30T23:59:41.053Z,95643.00
